Time;durP1;ratioP1;P1;durP2;ratioP2;P2;SDS_P1;SDS_P2;PMS_P1;PMS_P2;Temp;Humidity;BMP_temperature;BMP_pressure;BME280_temperature;BME280_humidity;BME280_pressure;Samples;Min_cycle;Max_cycle;Signal;HPM_P1;HPM_P2
2023/08/20 00:04:34;;;;;;;10.73;9.13;;;22.80;1.00;;;;;;9941721;29;20205;-89
2023/08/20 00:09:56;;;;;;;16.40;9.13;;;22.80;99.90;;;;;;9943773;29;20256;-89
2023/08/20 00:15:19;;;;;;;9.65;8.75;;;22.80;1.00;;;;;;9943856;29;20520;-88
2023/08/20 00:20:40;;;;;;;9.20;8.30;;;22.80;99.90;;;;;;9941342;29;20231;-90
2023/08/20 00:26:02;;;;;;;12.00;9.15;;;22.70;1.00;;;;;;9928790;29;20209;-87
2023/08/20 00:31:23;;;;;;;9.85;8.90;;;22.70;1.00;;;;;;9940978;29;20197;-88
2023/08/20 00:36:45;;;;;;;11.93;10.07;;;22.70;1.00;;;;;;9918033;29;20229;-88
2023/08/20 00:42:07;;;;;;;10.80;9.70;;;22.70;1.00;;;;;;9940797;29;20442;-89
2023/08/20 00:47:28;;;;;;;14.57;9.52;;;22.60;1.00;;;;;;9927527;30;20219;-85
2023/08/20 00:52:50;;;;;;;10.18;9.18;;;22.50;1.00;;;;;;9928296;29;20268;-84
2023/08/20 00:58:12;;;;;;;10.30;9.23;;;22.50;1.00;;;;;;9905091;29;20248;-86
2023/08/20 01:03:33;;;;;;;10.65;9.50;;;22.40;1.00;;;;;;9906994;29;20228;-87
2023/08/20 01:09:03;;;;;;;10.15;9.07;;;22.30;1.00;;;;;;9897826;30;20254;-84
2023/08/20 01:14:24;;;;;;;10.80;9.70;;;22.30;99.90;;;;;;9899940;29;20216;-89
2023/08/20 01:19:46;;;;;;;11.23;9.85;;;;;;;;;;9912699;29;20283;-90
2023/08/20 01:25:32;;;;;;;11.38;10.18;;;22.20;99.90;;;;;;9932889;30;20468;-90
2023/08/20 01:30:57;;;;;;;11.15;10.05;;;22.10;1.00;;;;;;9936624;29;20239;-86
2023/08/20 01:36:18;;;;;;;12.05;10.73;;;22.00;99.90;;;;;;9934213;29;20213;-86
2023/08/20 01:41:40;;;;;;;14.65;11.10;;;21.90;99.90;;;;;;9920916;30;20236;-88
2023/08/20 01:47:01;;;;;;;10.50;9.50;;;22.00;99.90;;;;;;9934344;30;20276;-90
2023/08/20 01:52:23;;;;;;;11.63;10.32;;;21.90;99.90;;;;;;9946604;29;20237;-87
2023/08/20 01:57:44;;;;;;;9.90;8.90;;;21.90;1.00;;;;;;9934219;29;20216;-91
2023/08/20 02:03:06;;;;;;;11.18;9.65;;;21.90;1.00;;;;;;9946408;29;20207;-89
2023/08/20 02:08:27;;;;;;;10.85;9.85;;;21.90;1.00;;;;;;9933153;29;20245;-89
2023/08/20 02:13:49;;;;;;;11.98;10.45;;;;;;;;;;9933427;29;20280;-90
2023/08/20 02:19:11;;;;;;;14.82;10.63;;;21.70;99.90;;;;;;9932150;29;20308;-80
2023/08/20 02:24:32;;;;;;;13.68;12.18;;;21.70;1.00;;;;;;9944562;29;20202;-80
2023/08/20 02:29:54;;;;;;;13.95;12.25;;;21.60;1.00;;;;;;9932933;29;20201;-79
2023/08/20 02:35:16;;;;;;;13.32;11.52;;;21.60;1.00;;;;;;9931578;29;20217;-80
2023/08/20 02:40:41;;;;;;;12.98;11.65;;;21.60;1.00;;;;;;9944223;29;20308;-78
2023/08/20 02:46:04;;;;;;;12.52;11.20;;;21.50;99.90;;;;;;9939726;29;20394;-78
2023/08/20 02:51:25;;;;;;;12.38;10.50;;;21.50;99.90;;;;;;9953563;29;20344;-78
2023/08/20 02:56:46;;;;;;;15.25;11.25;;;21.40;1.00;;;;;;9943510;29;20253;-81
2023/08/20 03:02:08;;;;;;;12.80;11.55;;;21.40;1.00;;;;;;9930682;30;20538;-79
2023/08/20 03:07:29;;;;;;;13.00;11.73;;;21.50;99.90;;;;;;9932732;29;20387;-78
2023/08/20 03:12:51;;;;;;;14.43;10.77;;;21.40;1.00;;;;;;9931250;29;20254;-78
2023/08/20 03:18:12;;;;;;;13.40;11.98;;;21.40;1.00;;;;;;9942811;29;20425;-78
2023/08/20 03:23:33;;;;;;;15.27;13.10;;;21.30;1.00;;;;;;9930968;29;20368;-80
2023/08/20 03:28:55;;;;;;;15.63;12.20;;;21.30;1.00;;;;;;9929248;29;20217;-78
2023/08/20 03:34:16;;;;;;;13.93;12.50;;;21.30;18.20;;;;;;9944457;29;20211;-78
2023/08/20 03:39:38;;;;;;;13.18;11.82;;;21.30;1.00;;;;;;9941814;29;20240;-78
2023/08/20 03:44:59;;;;;;;13.27;11.93;;;21.30;1.00;;;;;;9928629;30;20205;-80
2023/08/20 03:50:20;;;;;;;13.75;12.27;;;21.30;1.00;;;;;;9928810;29;20299;-81
2023/08/20 03:55:46;;;;;;;13.25;11.95;;;21.30;1.00;;;;;;9929119;29;20484;-83
2023/08/20 04:01:09;;;;;;;12.27;10.98;;;21.30;1.00;;;;;;9943959;29;20255;-88
2023/08/20 04:06:30;;;;;;;12.73;11.48;;;21.30;1.00;;;;;;9942375;29;20212;-88
2023/08/20 04:11:51;;;;;;;15.13;11.20;;;21.30;1.00;;;;;;9930395;29;20312;-91
2023/08/20 04:17:12;;;;;;;11.48;10.38;;;21.30;1.00;;;;;;9942487;29;20245;-89
2023/08/20 04:22:34;;;;;;;12.73;11.48;;;21.30;1.00;;;;;;9928935;29;20201;-89
2023/08/20 04:27:56;;;;;;;16.20;14.10;;;21.30;1.00;;;;;;9942114;29;20201;-90
2023/08/20 04:33:17;;;;;;;18.73;16.75;;;21.40;1.00;;;;;;9944022;29;20496;-91
2023/08/20 04:38:40;;;;;;;17.35;15.02;;;21.40;99.90;;;;;;9941290;29;20228;-90
2023/08/20 04:44:01;;;;;;;16.20;14.23;;;21.60;1.00;;;;;;9928420;29;20213;-89
2023/08/20 04:49:22;;;;;;;14.52;12.98;;;21.60;95.00;;;;;;9941290;29;20208;-85
2023/08/20 04:54:44;;;;;;;12.15;10.95;;;21.70;99.90;;;;;;9940599;29;20225;-88
2023/08/20 05:00:07;;;;;;;11.18;10.07;;;21.80;99.90;;;;;;9941094;29;20229;-89
2023/08/20 05:05:37;;;;;;;10.20;9.20;;;22.00;99.90;;;;;;9915573;29;20213;-88
2023/08/20 05:10:59;;;;;;;8.80;8.00;;;22.20;1.00;;;;;;9940986;29;20295;-89
2023/08/20 05:16:20;;;;;;;9.43;8.45;;;22.40;99.90;;;;;;9940090;29;20239;-84
2023/08/20 05:21:41;;;;;;;9.98;9.07;;;22.50;1.00;;;;;;9939386;29;20313;-84
2023/08/20 05:27:17;;;;;;;9.35;8.48;;;22.60;99.90;;;;;;9942006;29;20507;-84
2023/08/20 05:32:41;;;;;;;10.00;9.02;;;22.80;99.90;;;;;;9939759;29;20208;-80
2023/08/20 05:38:02;;;;;;;10.27;9.27;;;22.90;99.90;;;;;;9926691;30;20475;-83
2023/08/20 05:43:23;;;;;;;11.50;8.82;;;23.00;99.90;;;;;;9939386;29;20288;-82
2023/08/20 05:48:45;;;;;;;10.90;9.90;;;23.30;1.00;;;;;;9940871;29;20212;-82
2023/08/20 05:54:06;;;;;;;10.07;9.07;;;23.50;99.90;;;;;;9933209;30;20193;-83
2023/08/20 05:59:29;;;;;;;9.77;8.77;;;23.70;1.00;;;;;;9945695;29;20247;-83
2023/08/20 06:04:51;;;;;;;10.52;8.93;;;23.90;99.90;;;;;;9945521;29;20197;-81
2023/08/20 06:10:12;;;;;;;12.77;9.43;;;24.00;1.00;;;;;;9945101;29;20245;-81
2023/08/20 06:15:34;;;;;;;10.63;9.52;;;24.10;1.00;;;;;;9932521;29;20212;-82
2023/08/20 06:20:55;;;;;;;13.38;10.38;;;24.30;1.00;;;;;;9946961;29;20304;-83
2023/08/20 06:26:17;;;;;;;12.48;11.18;;;24.60;1.00;;;;;;9944847;29;20197;-82
2023/08/20 06:31:38;;;;;;;12.48;11.27;;;25.00;99.90;;;;;;9944732;29;20251;-81
2023/08/20 06:36:59;;;;;;;13.95;11.52;;;25.80;99.90;;;;;;9932694;29;20324;-81
2023/08/20 06:42:20;;;;;;;14.48;10.82;;;26.50;1.00;;;;;;9952923;29;20240;-87
2023/08/20 06:47:42;;;;;;;11.77;9.93;;;27.00;1.00;;;;;;9981475;29;20502;-91
2023/08/20 06:53:05;;;;;;;12.55;10.38;;;27.60;99.90;;;;;;9919723;30;20220;-92
2023/08/20 06:58:26;;;;;;;15.43;9.93;;;28.10;1.00;;;;;;9904943;30;20228;-80
2023/08/20 07:03:48;;;;;;;10.15;9.13;;;28.20;99.90;;;;;;9933700;29;20206;-81
2023/08/20 07:09:09;;;;;;;12.60;9.65;;;29.00;99.90;;;;;;9921983;29;20249;-89
2023/08/20 07:14:30;;;;;;;11.52;10.27;;;29.20;1.00;;;;;;9899548;30;20218;-87
2023/08/20 07:19:51;;;;;;;10.23;9.18;;;29.10;1.00;;;;;;9906214;29;20229;-85
2023/08/20 07:25:13;;;;;;;10.93;9.02;;;29.10;1.00;;;;;;9941727;29;20208;-86
2023/08/20 07:30:35;;;;;;;12.32;9.27;;;29.50;1.00;;;;;;9930132;29;20224;-82
2023/08/20 07:35:56;;;;;;;9.75;8.75;;;29.70;1.00;;;;;;9942996;29;20268;-86
2023/08/20 07:41:19;;;;;;;10.07;9.07;;;29.70;1.00;;;;;;9930768;29;20229;-82
2023/08/20 07:46:41;;;;;;;10.40;9.40;;;29.80;1.00;;;;;;9904696;29;20218;-86
2023/08/20 07:52:02;;;;;;;13.05;9.30;;;29.90;1.00;;;;;;9941084;29;20401;-87
2023/08/20 07:57:24;;;;;;;10.10;9.20;;;30.10;1.00;;;;;;9929391;30;20499;-82
2023/08/20 08:02:45;;;;;;;10.25;8.75;;;30.20;1.00;;;;;;9943777;29;20232;-82
2023/08/20 08:08:06;;;;;;;10.82;9.52;;;30.50;1.00;;;;;;9941446;29;20232;-86
2023/08/20 08:13:28;;;;;;;12.18;9.00;;;31.20;1.00;;;;;;9917694;29;20270;-81
2023/08/20 08:18:49;;;;;;;9.45;8.48;;;32.30;1.00;;;;;;9929474;29;20229;-84
2023/08/20 08:24:11;;;;;;;10.80;8.77;;;33.30;1.00;;;;;;9930588;29;20280;-88
2023/08/20 08:29:32;;;;;;;12.13;8.95;;;33.10;1.00;;;;;;9943263;29;20266;-91
2023/08/20 08:34:54;;;;;;;10.63;9.38;;;32.60;1.00;;;;;;9928832;29;20387;-80
2023/08/20 08:40:15;;;;;;;9.93;8.93;;;32.10;1.00;;;;;;9942665;29;20240;-80
2023/08/20 08:45:36;;;;;;;9.77;8.93;;;32.20;1.00;;;;;;9944431;29;20239;-80
2023/08/20 08:50:59;;;;;;;13.57;9.25;;;32.10;1.00;;;;;;9927115;30;20247;-80
2023/08/20 08:56:20;;;;;;;10.55;8.63;;;31.50;1.00;;;;;;9939830;29;20528;-80
2023/08/20 09:01:42;;;;;;;13.93;9.68;;;31.20;1.00;;;;;;9940254;29;20229;-81
2023/08/20 09:07:03;;;;;;;11.10;9.73;;;30.80;1.00;;;;;;9942174;29;20215;-81
2023/08/20 09:12:25;;;;;;;12.32;9.75;;;30.50;1.00;;;;;;9926658;29;20272;-81
2023/08/20 09:17:47;;;;;;;10.13;9.07;;;30.30;1.00;;;;;;9929413;29;20232;-80
2023/08/20 09:23:15;;;;;;;13.00;9.32;;;30.20;1.00;;;;;;9942953;29;20213;-80
2023/08/20 09:28:45;;;;;;;13.43;10.38;;;30.10;1.00;;;;;;9946479;29;20438;-80
2023/08/20 09:34:12;;;;;;;11.75;9.60;;;30.30;1.00;;;;;;9948700;29;20526;-80
2023/08/20 09:39:34;;;;;;;10.15;9.10;;;31.00;1.00;;;;;;9946240;29;20272;-81
2023/08/20 09:44:55;;;;;;;10.68;9.68;;;32.20;1.00;;;;;;9948295;29;20217;-81
2023/08/20 09:50:19;;;;;;;12.77;9.73;;;32.00;1.00;;;;;;9947803;29;20209;-81
2023/08/20 09:55:42;;;;;;;9.80;8.90;;;32.40;1.00;;;;;;9945670;29;20254;-82
2023/08/20 10:01:04;;;;;;;11.07;9.25;;;33.20;1.00;;;;;;9947643;29;20241;-81
2023/08/20 10:06:26;;;;;;;11.02;9.02;;;34.20;1.00;;;;;;9933699;29;20505;-80
2023/08/20 10:11:47;;;;;;;10.35;8.50;;;34.10;1.00;;;;;;9944837;29;20237;-81
2023/08/20 10:17:09;;;;;;;11.85;9.40;;;33.90;1.00;;;;;;9945265;29;20201;-81
2023/08/20 10:22:37;;;;;;;8.70;7.90;;;33.80;1.00;;;;;;9947186;29;20239;-81
2023/08/20 10:28:14;;;;;;;9.00;8.07;;;34.50;1.00;;;;;;9931817;29;20228;-83
2023/08/20 10:33:49;;;;;;;9.60;7.95;;;34.60;1.00;;;;;;9944714;29;20201;-86
2023/08/20 10:39:23;;;;;;;13.43;9.30;;;35.20;1.00;;;;;;9946754;29;20257;-89
2023/08/20 10:44:58;;;;;;;9.20;8.18;;;;;;;;;;9947223;29;20235;-89
2023/08/20 10:50:20;;;;;;;15.18;7.43;;;36.00;1.00;;;;;;9931717;29;20217;-89
2023/08/20 10:55:48;;;;;;;8.60;7.80;;;;;;;;;;9946539;29;20197;-82
2023/08/20 11:01:20;;;;;;;12.13;7.45;;;36.60;1.00;;;;;;9943694;29;20229;-83
2023/08/20 11:06:43;;;;;;;9.38;7.22;;;;;;;;;;9943381;29;20245;-85
2023/08/20 11:12:04;;;;;;;8.80;7.72;;;;;;;;;;9945675;29;20316;-87
2023/08/20 11:17:26;;;;;;;10.45;7.57;;;;;;;;;;9931813;29;20197;-87
2023/08/20 11:22:47;;;;;;;7.85;7.15;;;37.40;1.00;;;;;;9931161;29;20304;-82
2023/08/20 11:28:08;;;;;;;8.80;7.90;;;36.70;1.00;;;;;;9943281;29;20201;-84
2023/08/20 11:33:29;;;;;;;7.97;7.18;;;35.90;1.00;;;;;;9942887;29;20220;-90
2023/08/20 11:38:55;;;;;;;7.40;6.70;;;35.40;39.50;;;;;;9930593;29;20220;-81
2023/08/20 11:44:21;;;;;;;8.27;6.68;;;35.90;1.00;;;;;;9942133;29;20236;-82
2023/08/20 11:49:43;;;;;;;10.57;6.25;;;36.30;1.00;;;;;;9941585;29;20209;-83
2023/08/20 11:55:06;;;;;;;7.03;6.30;;;35.30;1.00;;;;;;9929981;29;20507;-83
2023/08/20 12:00:30;;;;;;;6.05;5.47;;;34.40;99.90;;;;;;9943709;29;20233;-80
2023/08/20 12:05:51;;;;;;;8.07;6.28;;;34.90;99.90;;;;;;9943471;29;20373;-81
2023/08/20 12:11:13;;;;;;;6.40;5.32;;;35.40;99.90;;;;;;9928327;29;20249;-81
2023/08/20 12:16:34;;;;;;;7.35;6.43;;;35.40;99.90;;;;;;9929431;29;20201;-85
2023/08/20 12:21:55;;;;;;;7.38;6.13;;;35.60;99.90;;;;;;9942908;29;20324;-81
2023/08/20 12:27:17;;;;;;;6.47;5.63;;;35.90;99.90;;;;;;9929311;29;20208;-80
2023/08/20 12:32:38;;;;;;;5.50;4.80;;;35.90;99.90;;;;;;9929191;29;20232;-79
2023/08/20 12:37:59;;;;;;;5.80;5.30;;;35.90;99.90;;;;;;9940353;29;20549;-81
2023/08/20 12:43:20;;;;;;;6.70;6.00;;;35.50;99.90;;;;;;9927564;29;20247;-91
2023/08/20 12:48:42;;;;;;;7.45;5.15;;;35.10;99.90;;;;;;9902042;30;20209;-84
2023/08/20 12:54:03;;;;;;;8.18;6.57;;;34.90;99.90;;;;;;9927338;29;20205;-83
2023/08/20 12:59:25;;;;;;;6.63;6.03;;;35.00;99.90;;;;;;9944936;29;20232;-83
2023/08/20 13:04:48;;;;;;;7.47;6.45;;;34.70;99.90;;;;;;9934740;29;20205;-84
2023/08/20 13:10:10;;;;;;;8.90;6.07;;;34.20;1.00;;;;;;9947311;29;20252;-87
2023/08/20 13:15:31;;;;;;;8.88;6.13;;;34.30;1.00;;;;;;9937236;29;20395;-84
2023/08/20 13:20:54;;;;;;;6.18;5.57;;;34.20;1.00;;;;;;9949235;29;20236;-85
2023/08/20 13:26:15;;;;;;;6.18;5.57;;;33.60;1.00;;;;;;9947316;29;20225;-84
2023/08/20 13:31:36;;;;;;;8.05;6.30;;;33.20;99.90;;;;;;9947167;29;20205;-86
2023/08/20 13:36:58;;;;;;;8.07;6.05;;;33.40;1.00;;;;;;9935236;29;20273;-86
2023/08/20 13:42:20;;;;;;;9.93;6.13;;;33.30;99.90;;;;;;9949018;29;20233;-84
2023/08/20 13:47:44;;;;;;;6.10;5.50;;;33.30;99.90;;;;;;9934999;29;20433;-89
2023/08/20 13:53:07;;;;;;;6.50;5.55;;;33.30;1.00;;;;;;9949397;29;20209;-92
2023/08/20 13:58:29;;;;;;;7.88;7.05;;;33.30;1.00;;;;;;9924773;29;20206;-89
2023/08/20 14:03:50;;;;;;;11.27;8.10;;;33.30;1.00;;;;;;9916977;29;20206;-81
2023/08/20 14:09:12;;;;;;;8.98;8.07;;;33.30;1.00;;;;;;9943008;29;20305;-81
2023/08/20 14:14:34;;;;;;;10.88;7.32;;;;;;;;;;9918591;30;20227;-89
2023/08/20 14:19:55;;;;;;;8.98;8.05;;;32.20;99.90;;;;;;9926117;29;20234;-86
2023/08/20 14:25:17;;;;;;;12.18;8.35;;;;;;;;;;9946103;29;20197;-89
2023/08/20 14:30:39;;;;;;;9.57;7.78;;;31.60;1.00;;;;;;9932743;30;20232;-91
2023/08/20 14:36:00;;;;;;;8.68;7.78;;;31.50;1.00;;;;;;9933380;29;20201;-82
2023/08/20 14:41:21;;;;;;;7.97;7.18;;;31.30;1.00;;;;;;9944601;29;20236;-80
2023/08/20 14:46:42;;;;;;;11.55;8.02;;;31.50;1.00;;;;;;9906566;30;20451;-81
2023/08/20 14:52:04;;;;;;;8.73;7.82;;;31.40;1.00;;;;;;9946274;29;20217;-83
2023/08/20 14:57:29;;;;;;;8.05;7.35;;;31.20;99.90;;;;;;9943846;29;20218;-81
2023/08/20 15:02:54;;;;;;;9.95;8.30;;;30.90;1.00;;;;;;9930406;29;20240;-80
2023/08/20 15:08:16;;;;;;;10.10;7.78;;;30.80;99.90;;;;;;9943275;29;20290;-80
2023/08/20 15:13:37;;;;;;;8.50;7.70;;;30.40;1.00;;;;;;9930991;29;20220;-81
2023/08/20 15:18:58;;;;;;;11.07;7.63;;;30.40;1.00;;;;;;9945062;29;20209;-80
2023/08/20 15:24:19;;;;;;;8.70;7.78;;;30.20;99.90;;;;;;9942726;29;20234;-80
2023/08/20 15:29:41;;;;;;;8.55;7.57;;;;;;;;;;9930790;30;20254;-80
2023/08/20 15:35:05;;;;;;;7.53;6.82;;;29.70;1.00;;;;;;9942709;29;20284;-80
2023/08/20 15:40:26;;;;;;;7.82;7.13;;;29.80;1.00;;;;;;9942654;29;20232;-81
2023/08/20 15:45:48;;;;;;;7.10;6.50;;;29.30;1.00;;;;;;9935548;29;20387;-83
2023/08/20 15:51:10;;;;;;;10.50;7.20;;;29.20;1.00;;;;;;9953697;29;20240;-81
2023/08/20 15:56:31;;;;;;;7.65;6.82;;;29.00;1.00;;;;;;9930175;30;20284;-80
2023/08/20 16:01:52;;;;;;;7.65;6.95;;;28.90;1.00;;;;;;9942062;29;20389;-82
2023/08/20 16:07:13;;;;;;;8.02;6.50;;;28.70;1.00;;;;;;9941621;29;20193;-82
2023/08/20 16:12:35;;;;;;;6.88;6.18;;;28.50;1.00;;;;;;9941129;29;20268;-81
2023/08/20 16:17:56;;;;;;;6.72;6.13;;;28.40;1.00;;;;;;9941062;29;20255;-83
2023/08/20 16:23:18;;;;;;;7.18;5.72;;;28.20;1.00;;;;;;9941274;29;20523;-82
2023/08/20 16:28:42;;;;;;;6.32;5.82;;;28.20;99.90;;;;;;9929120;30;20197;-83
2023/08/20 16:34:03;;;;;;;5.45;4.97;;;28.10;1.00;;;;;;9927763;29;20209;-87
2023/08/20 16:39:24;;;;;;;6.55;4.90;;;27.90;1.00;;;;;;9927830;29;20222;-81
2023/08/20 16:44:46;;;;;;;5.63;4.90;;;;;;;;;;9927611;29;20231;-82
2023/08/20 16:50:08;;;;;;;5.20;4.70;;;;;;;;;;9927490;29;20244;-84
2023/08/20 16:55:30;;;;;;;5.18;4.68;;;27.30;1.00;;;;;;9916661;30;20209;-80
2023/08/20 17:00:53;;;;;;;4.72;4.28;;;27.10;1.00;;;;;;9947321;29;20259;-80
2023/08/20 17:06:15;;;;;;;6.07;4.57;;;26.90;1.00;;;;;;9931028;29;20206;-81
2023/08/20 17:11:36;;;;;;;4.20;3.78;;;26.70;1.00;;;;;;9941183;29;20237;-90
2023/08/20 17:16:57;;;;;;;5.18;4.22;;;26.60;1.00;;;;;;9942903;29;20239;-83
2023/08/20 17:22:19;;;;;;;4.30;3.80;;;26.50;1.00;;;;;;9928940;29;20225;-86
2023/08/20 17:27:40;;;;;;;3.70;3.33;;;26.20;1.00;;;;;;9927611;29;20280;-88
2023/08/20 17:33:02;;;;;;;4.25;3.85;;;26.10;1.00;;;;;;9940311;29;20281;-87
2023/08/20 17:38:23;;;;;;;5.20;4.22;;;26.00;30.10;;;;;;9940346;29;20201;-85
2023/08/20 17:43:45;;;;;;;4.10;3.70;;;25.90;45.00;;;;;;9915600;29;20232;-85
2023/08/20 17:49:06;;;;;;;4.47;3.90;;;25.70;87.80;;;;;;9949286;29;20216;-89
2023/08/20 17:54:27;;;;;;;5.97;3.80;;;25.60;99.90;;;;;;9935038;29;20230;-91
2023/08/20 17:59:49;;;;;;;5.20;4.25;;;25.40;99.90;;;;;;9949209;29;20286;-86
2023/08/20 18:05:11;;;;;;;5.40;4.38;;;25.30;99.90;;;;;;9947023;29;20201;-86
2023/08/20 18:10:32;;;;;;;4.13;3.55;;;;;;;;;;9934473;29;20248;-89
2023/08/20 18:15:55;;;;;;;5.30;3.38;;;25.20;99.90;;;;;;9933641;29;20253;-80
2023/08/20 18:21:16;;;;;;;13.18;4.68;;;25.20;99.90;;;;;;9933116;29;20224;-80
2023/08/20 18:26:37;;;;;;;4.70;4.00;;;25.00;1.00;;;;;;9931961;30;20207;-82
2023/08/20 18:31:59;;;;;;;4.88;4.10;;;24.90;1.00;;;;;;9931592;30;20209;-80
2023/08/20 18:37:20;;;;;;;6.05;4.60;;;24.80;1.00;;;;;;9944090;29;20208;-80
2023/08/20 18:42:41;;;;;;;4.80;4.20;;;24.80;1.00;;;;;;9944121;29;20237;-80
2023/08/20 18:48:03;;;;;;;6.90;4.57;;;24.70;1.00;;;;;;9944021;29;20379;-81
2023/08/20 18:53:25;;;;;;;4.03;3.63;;;24.60;1.00;;;;;;9932151;29;20258;-85
2023/08/20 18:58:46;;;;;;;6.63;4.82;;;;;;;;;;9943954;29;20271;-83
2023/08/20 19:04:08;;;;;;;6.60;3.78;;;;;;;;;;9932330;29;20300;-86
2023/08/20 19:09:29;;;;;;;4.38;3.70;;;24.20;99.90;;;;;;9930917;29;20480;-89
2023/08/20 19:14:51;;;;;;;4.60;4.10;;;24.20;99.90;;;;;;9918288;29;20278;-86
2023/08/20 19:20:13;;;;;;;3.85;3.42;;;24.20;96.50;;;;;;9943371;29;20220;-89
2023/08/20 19:25:34;;;;;;;5.05;3.47;;;24.10;99.90;;;;;;9906090;30;20206;-88
2023/08/20 19:30:55;;;;;;;4.47;4.07;;;24.00;99.90;;;;;;9918680;29;20277;-85
2023/08/20 19:36:16;;;;;;;4.90;4.40;;;23.90;99.90;;;;;;9920327;29;20236;-82
2023/08/20 19:41:38;;;;;;;4.43;4.03;;;23.80;99.90;;;;;;9893637;29;20292;-82
2023/08/20 19:47:00;;;;;;;4.30;3.90;;;23.60;1.00;;;;;;9944480;29;20455;-80
2023/08/20 19:52:21;;;;;;;4.28;3.88;;;23.70;99.90;;;;;;9916597;30;20508;-83
2023/08/20 19:57:43;;;;;;;5.57;4.32;;;23.60;99.90;;;;;;9942283;29;20243;-79
2023/08/20 20:03:05;;;;;;;5.07;4.32;;;23.60;99.90;;;;;;9929898;29;20228;-80
2023/08/20 20:08:26;;;;;;;4.07;3.67;;;23.60;99.90;;;;;;9941164;29;20237;-79
2023/08/20 20:13:48;;;;;;;5.80;3.90;;;23.70;99.90;;;;;;9943914;29;20233;-81
2023/08/20 20:19:09;;;;;;;4.45;3.58;;;23.70;83.70;;;;;;9929441;29;20205;-79
2023/08/20 20:24:31;;;;;;;3.90;3.47;;;23.80;77.00;;;;;;9936833;29;20391;-82
2023/08/20 20:29:52;;;;;;;5.07;4.63;;;23.80;10.10;;;;;;9929360;29;20220;-80
2023/08/20 20:35:13;;;;;;;4.20;3.80;;;23.60;99.90;;;;;;9942795;29;20205;-80
2023/08/20 20:40:36;;;;;;;3.97;3.47;;;23.60;1.00;;;;;;9927711;29;20229;-80
2023/08/20 20:45:57;;;;;;;4.57;3.97;;;23.50;1.00;;;;;;9928870;29;20213;-83
2023/08/20 20:51:18;;;;;;;5.18;4.45;;;23.30;99.90;;;;;;9927334;29;20220;-79
2023/08/20 20:56:40;;;;;;;4.22;3.83;;;23.10;99.90;;;;;;9928908;29;20246;-80
2023/08/20 21:02:01;;;;;;;4.40;4.00;;;23.00;99.90;;;;;;9941935;29;20316;-81
2023/08/20 21:07:23;;;;;;;5.85;4.22;;;22.90;1.00;;;;;;9942342;29;20215;-79
2023/08/20 21:12:44;;;;;;;5.40;4.88;;;22.80;1.00;;;;;;9929678;29;20228;-78
2023/08/20 21:18:06;;;;;;;4.07;3.72;;;22.70;1.00;;;;;;9929080;29;20197;-78
2023/08/20 21:23:27;;;;;;;4.57;4.07;;;22.70;1.00;;;;;;9949695;29;20263;-79
2023/08/20 21:28:48;;;;;;;4.18;3.72;;;22.60;1.00;;;;;;9949214;29;20235;-79
2023/08/20 21:34:10;;;;;;;4.50;4.10;;;22.50;1.00;;;;;;9934720;29;20216;-80
2023/08/20 21:39:31;;;;;;;5.22;3.90;;;22.50;1.00;;;;;;9934648;29;20204;-79
2023/08/20 21:44:54;;;;;;;4.47;4.07;;;22.60;1.00;;;;;;9920598;30;20221;-80
2023/08/20 21:50:16;;;;;;;4.55;3.83;;;22.40;1.00;;;;;;9948310;29;20309;-79
2023/08/20 21:55:37;;;;;;;4.00;3.60;;;22.40;1.00;;;;;;9933607;29;20208;-80
2023/08/20 22:01:03;;;;;;;4.13;3.72;;;22.40;1.00;;;;;;9945951;29;20273;-81
2023/08/20 22:06:24;;;;;;;5.45;4.50;;;22.30;25.20;;;;;;9948099;29;20457;-80
2023/08/20 22:11:46;;;;;;;5.55;4.28;;;22.20;1.00;;;;;;9932661;29;20433;-80
2023/08/20 22:17:08;;;;;;;4.90;4.40;;;22.80;1.00;;;;;;9932277;29;20208;-80
2023/08/20 22:22:29;;;;;;;4.75;4.35;;;22.10;1.00;;;;;;9933452;29;20303;-80
2023/08/20 22:27:50;;;;;;;5.18;4.25;;;22.20;1.00;;;;;;9945318;29;20201;-78
2023/08/20 22:33:11;;;;;;;5.15;4.60;;;22.10;1.00;;;;;;9946397;29;20205;-84
2023/08/20 22:38:34;;;;;;;5.03;4.45;;;22.10;1.00;;;;;;9944409;29;20396;-80
2023/08/20 22:43:55;;;;;;;5.80;5.15;;;22.10;99.90;;;;;;9932226;29;20240;-81
2023/08/20 22:49:16;;;;;;;5.30;4.80;;;22.10;1.00;;;;;;9932329;29;20215;-81
2023/08/20 22:54:39;;;;;;;5.55;4.97;;;22.10;1.00;;;;;;9944166;29;20203;-81
2023/08/20 23:00:00;;;;;;;8.60;5.00;;;21.90;1.00;;;;;;9930957;29;20284;-82
2023/08/20 23:05:22;;;;;;;5.38;4.85;;;21.80;99.90;;;;;;9943724;29;20228;-87
2023/08/20 23:10:43;;;;;;;6.13;5.25;;;21.80;99.90;;;;;;9945459;29;20543;-80
2023/08/20 23:16:05;;;;;;;5.97;5.28;;;21.70;1.00;;;;;;9918020;30;20272;-84
2023/08/20 23:21:26;;;;;;;5.82;5.00;;;21.60;99.90;;;;;;9945338;29;20233;-83
2023/08/20 23:26:48;;;;;;;5.65;4.93;;;;;;;;;;9944995;29;20208;-82
2023/08/20 23:32:10;;;;;;;8.63;5.55;;;21.50;1.00;;;;;;9943156;29;20225;-81
2023/08/20 23:37:32;;;;;;;5.68;5.07;;;;;;;;;;9944993;29;20214;-82
2023/08/20 23:42:55;;;;;;;5.40;4.90;;;21.20;1.00;;;;;;9941360;29;20237;-84
2023/08/20 23:48:16;;;;;;;6.70;4.55;;;21.30;1.00;;;;;;9942040;29;20229;-86
2023/08/20 23:53:38;;;;;;;8.85;5.28;;;21.30;1.00;;;;;;9942601;29;20201;-80
2023/08/20 23:58:59;;;;;;;9.20;5.80;;;;;;;;;;9937856;29;20484;-82
